logo
Search for airport 
image banner adimage banner adimage banner ad
image banner ad

MMGM - Guaymas Aeropuerto Internacional Gral. Jose Ma. Yanez

Located in Guaymas, Mexico

ICAO - MMGM, IATA - GYM

Data provided by Airmate  

General information

Coordinates: N27°58'10" W110°55'25"
Elevation is 59 feet MSL.
 
View others Airports in Sonora

Operational data

Special qualification required
Current time UTC:
Current local time:
Weather
TAF: TAF MMGM 180459Z 1806/1906 00000KT P6SM SKC FM181500 24010KT P6SM SCT200 FM181800 25015KT P6SM BKN200 FM190000 28006KT P6SM SCT200
View NOTAMs / SUP AIP / TFR affecting this airport [VIEW]
Communications frequencies: [VIEW]

Runways:

RWY identifierQFULength (ft)Width (ft)SurfaceLDA (ft)
0230°7710148ASP
20210°7710148ASP

Airport contact information

Address: Guaymas Mexico

Satellite view of MMGM